Center Moriches, New York
Current Conditions -  °F | °C
As of 2:03 PM on Wednesday 26 Nov 2014 (Local Time) from KHWV Reporting Station
Heavy Rain Heavy Rain  
Wind Chill: 31°   Ceiling: 600
Heat Index: 39°   Visibility: 2mi
Dew Point: 37°   Wind: 14mph
Humidity: 93%   Direction: 360°N
Pressure: 29.92"   Gusts: 24mph
Location:  40.8°N, 72.79°W
Report Text: KHWV 261903Z AUTO 36012G21KT 2SM +RA BR OVC006 04/03 A2992 RMK AO2 CIG 005V009 P0004 T00390028 TSNO
Loading
Personal Weather Stations






























Interactive Weather Map New forecast layout! Learn more

10-Day Weather Forecast

Advertisements
Track Severe Weather on mobile